sensor_id;sensor_type;location;lat;lon;timestamp;temperature;humidity
15231;DHT22;32569;51.762;8.564;2023-05-18T00:00:43;6.60;98.60
15231;DHT22;32569;51.762;8.564;2023-05-18T00:03:11;6.50;98.80
15231;DHT22;32569;51.762;8.564;2023-05-18T00:05:37;6.50;98.70
15231;DHT22;32569;51.762;8.564;2023-05-18T00:08:04;6.50;98.60
15231;DHT22;32569;51.762;8.564;2023-05-18T00:10:32;6.60;98.70
15231;DHT22;32569;51.762;8.564;2023-05-18T00:12:59;6.50;98.90
15231;DHT22;32569;51.762;8.564;2023-05-18T00:15:25;6.50;99.00
15231;DHT22;32569;51.762;8.564;2023-05-18T00:17:52;6.50;98.80
15231;DHT22;32569;51.762;8.564;2023-05-18T00:20:18;6.50;99.10
15231;DHT22;32569;51.762;8.564;2023-05-18T00:22:46;6.50;99.10
15231;DHT22;32569;51.762;8.564;2023-05-18T00:25:15;6.40;99.30
15231;DHT22;32569;51.762;8.564;2023-05-18T00:27:43;6.40;99.30
15231;DHT22;32569;51.762;8.564;2023-05-18T00:30:10;6.40;99.40
15231;DHT22;32569;51.762;8.564;2023-05-18T00:32:37;6.40;99.60
15231;DHT22;32569;51.762;8.564;2023-05-18T00:35:04;6.40;99.50
15231;DHT22;32569;51.762;8.564;2023-05-18T00:37:31;6.40;99.40
15231;DHT22;32569;51.762;8.564;2023-05-18T00:39:58;6.40;99.50
15231;DHT22;32569;51.762;8.564;2023-05-18T00:42:25;6.30;99.50
15231;DHT22;32569;51.762;8.564;2023-05-18T00:44:52;6.30;99.70
15231;DHT22;32569;51.762;8.564;2023-05-18T00:47:19;6.20;99.90
15231;DHT22;32569;51.762;8.564;2023-05-18T00:49:46;6.40;99.60
15231;DHT22;32569;51.762;8.564;2023-05-18T00:52:12;6.40;99.40
15231;DHT22;32569;51.762;8.564;2023-05-18T00:54:40;6.30;99.60
15231;DHT22;32569;51.762;8.564;2023-05-18T00:57:10;6.30;99.60
15231;DHT22;32569;51.762;8.564;2023-05-18T00:59:38;6.30;99.70
15231;DHT22;32569;51.762;8.564;2023-05-18T01:02:06;6.30;99.60
15231;DHT22;32569;51.762;8.564;2023-05-18T01:04:34;6.30;99.50
15231;DHT22;32569;51.762;8.564;2023-05-18T01:07:02;6.30;99.40
15231;DHT22;32569;51.762;8.564;2023-05-18T01:09:31;6.20;99.60
15231;DHT22;32569;51.762;8.564;2023-05-18T01:12:04;6.00;99.90
15231;DHT22;32569;51.762;8.564;2023-05-18T01:14:34;6.00;99.80
15231;DHT22;32569;51.762;8.564;2023-05-18T01:17:08;6.00;99.90
15231;DHT22;32569;51.762;8.564;2023-05-18T01:20:06;5.90;99.90
15231;DHT22;32569;51.762;8.564;2023-05-18T01:22:58;5.90;99.90
15231;DHT22;32569;51.762;8.564;2023-05-18T01:25:33;5.80;99.90
15231;DHT22;32569;51.762;8.564;2023-05-18T01:28:04;5.70;99.90
15231;DHT22;32569;51.762;8.564;2023-05-18T01:30:34;5.60;99.90
15231;DHT22;32569;51.762;8.564;2023-05-18T01:33:05;5.60;99.90
15231;DHT22;32569;51.762;8.564;2023-05-18T01:35:32;5.60;99.90
15231;DHT22;32569;51.762;8.564;2023-05-18T01:37:59;5.50;99.90
15231;DHT22;32569;51.762;8.564;2023-05-18T01:40:28;5.40;99.90
15231;DHT22;32569;51.762;8.564;2023-05-18T01:42:58;5.50;99.90
15231;DHT22;32569;51.762;8.564;2023-05-18T01:45:30;5.50;99.90
15231;DHT22;32569;51.762;8.564;2023-05-18T01:47:58;5.60;99.90
15231;DHT22;32569;51.762;8.564;2023-05-18T01:50:34;5.70;99.90
15231;DHT22;32569;51.762;8.564;2023-05-18T01:53:07;5.70;99.90
15231;DHT22;32569;51.762;8.564;2023-05-18T01:55:39;5.50;99.90
15231;DHT22;32569;51.762;8.564;2023-05-18T01:58:07;5.40;99.90
15231;DHT22;32569;51.762;8.564;2023-05-18T02:00:35;5.40;99.90
15231;DHT22;32569;51.762;8.564;2023-05-18T02:03:02;5.50;99.90
15231;DHT22;32569;51.762;8.564;2023-05-18T02:05:32;5.50;99.90
15231;DHT22;32569;51.762;8.564;2023-05-18T02:07:58;5.40;99.90
15231;DHT22;32569;51.762;8.564;2023-05-18T02:10:25;5.40;99.90
15231;DHT22;32569;51.762;8.564;2023-05-18T02:12:51;5.50;99.90
15231;DHT22;32569;51.762;8.564;2023-05-18T02:15:18;5.50;99.90
15231;DHT22;32569;51.762;8.564;2023-05-18T02:17:46;5.40;99.90
15231;DHT22;32569;51.762;8.564;2023-05-18T02:20:13;5.50;99.90
15231;DHT22;32569;51.762;8.564;2023-05-18T02:22:43;5.40;99.90
15231;DHT22;32569;51.762;8.564;2023-05-18T02:25:10;5.30;99.90
15231;DHT22;32569;51.762;8.564;2023-05-18T02:27:36;5.30;99.90
15231;DHT22;32569;51.762;8.564;2023-05-18T02:30:04;5.30;99.90
15231;DHT22;32569;51.762;8.564;2023-05-18T02:32:33;5.20;99.90
15231;DHT22;32569;51.762;8.564;2023-05-18T02:35:04;5.10;99.90
15231;DHT22;32569;51.762;8.564;2023-05-18T02:37:34;5.00;99.90
15231;DHT22;32569;51.762;8.564;2023-05-18T02:40:05;5.00;99.90
15231;DHT22;32569;51.762;8.564;2023-05-18T02:42:32;5.00;99.90
15231;DHT22;32569;51.762;8.564;2023-05-18T02:44:58;4.90;99.90
15231;DHT22;32569;51.762;8.564;2023-05-18T02:47:29;4.90;99.90
15231;DHT22;32569;51.762;8.564;2023-05-18T02:49:55;5.00;99.90
15231;DHT22;32569;51.762;8.564;2023-05-18T02:52:26;4.90;99.90
15231;DHT22;32569;51.762;8.564;2023-05-18T02:54:53;4.90;99.90
15231;DHT22;32569;51.762;8.564;2023-05-18T02:57:23;4.90;99.90
15231;DHT22;32569;51.762;8.564;2023-05-18T02:59:50;4.80;99.90
15231;DHT22;32569;51.762;8.564;2023-05-18T03:02:16;4.80;99.90
15231;DHT22;32569;51.762;8.564;2023-05-18T03:04:43;4.90;99.90
15231;DHT22;32569;51.762;8.564;2023-05-18T03:07:11;5.10;99.90
15231;DHT22;32569;51.762;8.564;2023-05-18T03:09:39;5.10;99.90
15231;DHT22;32569;51.762;8.564;2023-05-18T03:12:06;4.90;99.90
15231;DHT22;32569;51.762;8.564;2023-05-18T03:14:33;4.80;99.90
15231;DHT22;32569;51.762;8.564;2023-05-18T03:17:00;4.90;99.90
15231;DHT22;32569;51.762;8.564;2023-05-18T03:19:30;4.90;99.90
15231;DHT22;32569;51.762;8.564;2023-05-18T03:22:02;5.00;99.90
15231;DHT22;32569;51.762;8.564;2023-05-18T03:24:29;5.00;99.90
15231;DHT22;32569;51.762;8.564;2023-05-18T03:27:06;5.10;99.90
15231;DHT22;32569;51.762;8.564;2023-05-18T03:29:36;4.90;99.90
15231;DHT22;32569;51.762;8.564;2023-05-18T03:32:02;5.00;99.90
15231;DHT22;32569;51.762;8.564;2023-05-18T03:34:29;5.00;99.90
15231;DHT22;32569;51.762;8.564;2023-05-18T03:36:56;5.00;99.90
15231;DHT22;32569;51.762;8.564;2023-05-18T03:39:24;5.00;99.90
15231;DHT22;32569;51.762;8.564;2023-05-18T03:41:50;5.10;99.90
15231;DHT22;32569;51.762;8.564;2023-05-18T03:44:20;5.00;99.90
15231;DHT22;32569;51.762;8.564;2023-05-18T03:46:47;4.70;99.90
15231;DHT22;32569;51.762;8.564;2023-05-18T03:49:14;4.80;99.90
15231;DHT22;32569;51.762;8.564;2023-05-18T03:51:40;4.70;99.90
15231;DHT22;32569;51.762;8.564;2023-05-18T03:54:07;4.70;99.90
15231;DHT22;32569;51.762;8.564;2023-05-18T03:56:34;4.70;99.90
15231;DHT22;32569;51.762;8.564;2023-05-18T03:59:00;4.80;99.90
15231;DHT22;32569;51.762;8.564;2023-05-18T04:01:31;4.90;99.90
15231;DHT22;32569;51.762;8.564;2023-05-18T04:03:59;4.80;99.90
15231;DHT22;32569;51.762;8.564;2023-05-18T04:06:25;4.80;99.90
15231;DHT22;32569;51.762;8.564;2023-05-18T04:08:52;4.90;99.90
15231;DHT22;32569;51.762;8.564;2023-05-18T04:11:19;4.90;99.90
15231;DHT22;32569;51.762;8.564;2023-05-18T04:13:46;4.90;99.90
15231;DHT22;32569;51.762;8.564;2023-05-18T04:16:14;5.00;99.90
15231;DHT22;32569;51.762;8.564;2023-05-18T04:18:42;5.10;99.90
15231;DHT22;32569;51.762;8.564;2023-05-18T04:21:08;5.00;99.90
15231;DHT22;32569;51.762;8.564;2023-05-18T04:23:36;5.10;99.90
15231;DHT22;32569;51.762;8.564;2023-05-18T04:26:05;5.10;99.90
15231;DHT22;32569;51.762;8.564;2023-05-18T04:28:32;5.10;99.90
15231;DHT22;32569;51.762;8.564;2023-05-18T04:30:58;5.20;99.90
15231;DHT22;32569;51.762;8.564;2023-05-18T04:33:26;5.40;99.90
15231;DHT22;32569;51.762;8.564;2023-05-18T04:35:54;5.40;99.90
15231;DHT22;32569;51.762;8.564;2023-05-18T04:38:23;5.50;99.90
15231;DHT22;32569;51.762;8.564;2023-05-18T04:40:50;5.60;99.90
15231;DHT22;32569;51.762;8.564;2023-05-18T04:43:18;5.90;99.90
15231;DHT22;32569;51.762;8.564;2023-05-18T04:45:45;6.20;99.90
15231;DHT22;32569;51.762;8.564;2023-05-18T04:48:15;6.60;99.90
15231;DHT22;32569;51.762;8.564;2023-05-18T04:50:46;6.90;99.90
15231;DHT22;32569;51.762;8.564;2023-05-18T04:53:14;7.00;99.40
15231;DHT22;32569;51.762;8.564;2023-05-18T04:55:42;7.00;99.40
15231;DHT22;32569;51.762;8.564;2023-05-18T04:58:13;7.10;99.30
15231;DHT22;32569;51.762;8.564;2023-05-18T05:00:40;7.20;99.20
15231;DHT22;32569;51.762;8.564;2023-05-18T05:03:07;7.20;99.30
15231;DHT22;32569;51.762;8.564;2023-05-18T05:05:34;7.40;99.10
15231;DHT22;32569;51.762;8.564;2023-05-18T05:08:01;7.60;98.80
15231;DHT22;32569;51.762;8.564;2023-05-18T05:10:30;7.80;98.50
15231;DHT22;32569;51.762;8.564;2023-05-18T05:12:57;7.80;98.70
15231;DHT22;32569;51.762;8.564;2023-05-18T05:15:23;7.80;98.20
15231;DHT22;32569;51.762;8.564;2023-05-18T05:17:50;8.10;97.60
15231;DHT22;32569;51.762;8.564;2023-05-18T05:20:17;8.30;97.50
15231;DHT22;32569;51.762;8.564;2023-05-18T05:22:47;8.20;97.70
15231;DHT22;32569;51.762;8.564;2023-05-18T05:25:13;8.40;97.50
15231;DHT22;32569;51.762;8.564;2023-05-18T05:27:41;8.40;97.70
15231;DHT22;32569;51.762;8.564;2023-05-18T05:30:08;8.50;97.80
15231;DHT22;32569;51.762;8.564;2023-05-18T05:32:35;8.70;96.60
15231;DHT22;32569;51.762;8.564;2023-05-18T05:35:02;8.80;96.80
15231;DHT22;32569;51.762;8.564;2023-05-18T05:37:29;9.00;96.80
15231;DHT22;32569;51.762;8.564;2023-05-18T05:39:55;9.20;96.60
15231;DHT22;32569;51.762;8.564;2023-05-18T05:42:22;9.50;96.10
15231;DHT22;32569;51.762;8.564;2023-05-18T05:44:51;9.50;95.00
15231;DHT22;32569;51.762;8.564;2023-05-18T05:47:17;9.50;94.80
15231;DHT22;32569;51.762;8.564;2023-05-18T05:49:44;9.40;94.80
15231;DHT22;32569;51.762;8.564;2023-05-18T05:52:13;9.40;94.60
15231;DHT22;32569;51.762;8.564;2023-05-18T05:54:40;9.30;94.50
15231;DHT22;32569;51.762;8.564;2023-05-18T05:57:07;9.30;94.20
15231;DHT22;32569;51.762;8.564;2023-05-18T05:59:33;9.30;94.50
15231;DHT22;32569;51.762;8.564;2023-05-18T06:02:01;9.40;94.40
15231;DHT22;32569;51.762;8.564;2023-05-18T06:04:28;9.40;94.40
15231;DHT22;32569;51.762;8.564;2023-05-18T06:06:55;9.40;94.60
15231;DHT22;32569;51.762;8.564;2023-05-18T06:09:21;9.40;94.20
15231;DHT22;32569;51.762;8.564;2023-05-18T06:11:48;9.50;93.80
15231;DHT22;32569;51.762;8.564;2023-05-18T06:14:14;9.50;94.10
15231;DHT22;32569;51.762;8.564;2023-05-18T06:16:41;9.60;94.20
15231;DHT22;32569;51.762;8.564;2023-05-18T06:19:09;9.80;94.30
15231;DHT22;32569;51.762;8.564;2023-05-18T06:21:36;9.90;94.00
15231;DHT22;32569;51.762;8.564;2023-05-18T06:24:02;10.10;93.90
15231;DHT22;32569;51.762;8.564;2023-05-18T06:26:29;10.20;93.80
15231;DHT22;32569;51.762;8.564;2023-05-18T06:28:56;10.40;93.60
15231;DHT22;32569;51.762;8.564;2023-05-18T06:31:23;10.60;93.00
15231;DHT22;32569;51.762;8.564;2023-05-18T06:33:50;10.60;92.80
15231;DHT22;32569;51.762;8.564;2023-05-18T06:36:18;10.10;93.20
15231;DHT22;32569;51.762;8.564;2023-05-18T06:38:44;9.90;93.40
15231;DHT22;32569;51.762;8.564;2023-05-18T06:41:11;9.40;93.60
15231;DHT22;32569;51.762;8.564;2023-05-18T06:43:37;9.30;94.20
15231;DHT22;32569;51.762;8.564;2023-05-18T06:46:04;9.20;94.60
15231;DHT22;32569;51.762;8.564;2023-05-18T06:48:32;9.20;94.30
15231;DHT22;32569;51.762;8.564;2023-05-18T06:50:59;9.20;94.60
15231;DHT22;32569;51.762;8.564;2023-05-18T06:53:27;9.30;94.60
15231;DHT22;32569;51.762;8.564;2023-05-18T06:55:56;9.30;95.20
15231;DHT22;32569;51.762;8.564;2023-05-18T06:58:22;9.40;95.00
15231;DHT22;32569;51.762;8.564;2023-05-18T07:00:49;9.40;95.00
15231;DHT22;32569;51.762;8.564;2023-05-18T07:03:15;9.30;95.00
15231;DHT22;32569;51.762;8.564;2023-05-18T07:05:42;9.40;94.50
15231;DHT22;32569;51.762;8.564;2023-05-18T07:08:09;9.30;94.60
15231;DHT22;32569;51.762;8.564;2023-05-18T07:10:37;9.30;94.90
15231;DHT22;32569;51.762;8.564;2023-05-18T07:13:04;9.40;95.20
15231;DHT22;32569;51.762;8.564;2023-05-18T07:15:30;9.50;94.60
15231;DHT22;32569;51.762;8.564;2023-05-18T07:17:57;9.50;94.70
15231;DHT22;32569;51.762;8.564;2023-05-18T07:20:24;9.50;95.20
15231;DHT22;32569;51.762;8.564;2023-05-18T07:22:51;9.60;95.00
15231;DHT22;32569;51.762;8.564;2023-05-18T07:25:19;9.70;95.00
15231;DHT22;32569;51.762;8.564;2023-05-18T07:27:47;9.80;95.20
15231;DHT22;32569;51.762;8.564;2023-05-18T07:30:16;10.00;95.30
15231;DHT22;32569;51.762;8.564;2023-05-18T07:32:43;10.10;94.70
15231;DHT22;32569;51.762;8.564;2023-05-18T07:35:10;10.00;95.00
15231;DHT22;32569;51.762;8.564;2023-05-18T07:37:36;9.90;94.50
15231;DHT22;32569;51.762;8.564;2023-05-18T07:40:11;9.90;94.70
15231;DHT22;32569;51.762;8.564;2023-05-18T07:42:39;10.00;95.10
15231;DHT22;32569;51.762;8.564;2023-05-18T07:45:08;9.90;94.60
15231;DHT22;32569;51.762;8.564;2023-05-18T07:47:35;10.10;94.10
15231;DHT22;32569;51.762;8.564;2023-05-18T07:50:02;10.10;93.80
15231;DHT22;32569;51.762;8.564;2023-05-18T07:52:29;10.10;93.40
15231;DHT22;32569;51.762;8.564;2023-05-18T07:54:55;10.10;94.10
15231;DHT22;32569;51.762;8.564;2023-05-18T07:57:25;10.10;94.60
15231;DHT22;32569;51.762;8.564;2023-05-18T07:59:52;10.30;93.90
15231;DHT22;32569;51.762;8.564;2023-05-18T08:02:20;10.30;94.10
15231;DHT22;32569;51.762;8.564;2023-05-18T08:04:47;10.30;92.80
15231;DHT22;32569;51.762;8.564;2023-05-18T08:07:13;10.30;93.10
15231;DHT22;32569;51.762;8.564;2023-05-18T08:09:40;10.20;93.10
15231;DHT22;32569;51.762;8.564;2023-05-18T08:12:07;10.20;93.80
15231;DHT22;32569;51.762;8.564;2023-05-18T08:14:33;10.40;93.10
15231;DHT22;32569;51.762;8.564;2023-05-18T08:17:02;10.30;93.10
15231;DHT22;32569;51.762;8.564;2023-05-18T08:19:30;10.60;93.20
15231;DHT22;32569;51.762;8.564;2023-05-18T08:21:56;10.60;92.70
15231;DHT22;32569;51.762;8.564;2023-05-18T08:24:23;10.60;92.90
15231;DHT22;32569;51.762;8.564;2023-05-18T08:26:50;10.60;93.00
15231;DHT22;32569;51.762;8.564;2023-05-18T08:29:19;10.60;92.80
15231;DHT22;32569;51.762;8.564;2023-05-18T08:31:46;10.70;93.00
15231;DHT22;32569;51.762;8.564;2023-05-18T08:34:13;10.90;93.30
15231;DHT22;32569;51.762;8.564;2023-05-18T08:36:41;10.90;93.00
15231;DHT22;32569;51.762;8.564;2023-05-18T08:39:09;11.00;92.50
15231;DHT22;32569;51.762;8.564;2023-05-18T08:41:40;11.00;92.00
15231;DHT22;32569;51.762;8.564;2023-05-18T08:44:14;11.00;92.80
15231;DHT22;32569;51.762;8.564;2023-05-18T08:46:42;11.10;92.10
15231;DHT22;32569;51.762;8.564;2023-05-18T08:49:16;11.20;92.10
15231;DHT22;32569;51.762;8.564;2023-05-18T08:51:46;11.30;92.60
15231;DHT22;32569;51.762;8.564;2023-05-18T08:54:19;11.30;92.60
15231;DHT22;32569;51.762;8.564;2023-05-18T08:56:46;11.20;92.30
15231;DHT22;32569;51.762;8.564;2023-05-18T08:59:15;11.30;91.90
15231;DHT22;32569;51.762;8.564;2023-05-18T09:01:44;11.40;92.20
15231;DHT22;32569;51.762;8.564;2023-05-18T09:04:10;11.50;91.70
15231;DHT22;32569;51.762;8.564;2023-05-18T09:06:38;11.40;91.80
15231;DHT22;32569;51.762;8.564;2023-05-18T09:09:06;11.40;92.00
15231;DHT22;32569;51.762;8.564;2023-05-18T09:11:34;11.40;91.70
15231;DHT22;32569;51.762;8.564;2023-05-18T09:14:01;11.30;92.00
15231;DHT22;32569;51.762;8.564;2023-05-18T09:16:28;11.30;92.00
15231;DHT22;32569;51.762;8.564;2023-05-18T09:18:56;11.50;91.70
15231;DHT22;32569;51.762;8.564;2023-05-18T09:21:23;11.50;91.50
15231;DHT22;32569;51.762;8.564;2023-05-18T09:23:50;11.50;91.90
15231;DHT22;32569;51.762;8.564;2023-05-18T09:26:19;11.50;92.20
15231;DHT22;32569;51.762;8.564;2023-05-18T09:28:50;11.50;91.60
15231;DHT22;32569;51.762;8.564;2023-05-18T09:31:19;11.40;91.60
15231;DHT22;32569;51.762;8.564;2023-05-18T09:33:48;11.40;92.00
15231;DHT22;32569;51.762;8.564;2023-05-18T09:36:16;11.50;91.70
15231;DHT22;32569;51.762;8.564;2023-05-18T09:38:44;11.50;92.10
15231;DHT22;32569;51.762;8.564;2023-05-18T09:41:13;11.60;93.50
15231;DHT22;32569;51.762;8.564;2023-05-18T09:43:46;11.70;92.10
15231;DHT22;32569;51.762;8.564;2023-05-18T09:46:13;12.00;91.10
15231;DHT22;32569;51.762;8.564;2023-05-18T09:48:41;12.10;90.70
15231;DHT22;32569;51.762;8.564;2023-05-18T09:51:09;12.10;91.10
15231;DHT22;32569;51.762;8.564;2023-05-18T09:53:39;12.00;91.10
15231;DHT22;32569;51.762;8.564;2023-05-18T09:56:06;12.00;91.10
15231;DHT22;32569;51.762;8.564;2023-05-18T09:58:37;11.90;91.90
15231;DHT22;32569;51.762;8.564;2023-05-18T10:01:06;12.00;91.00
15231;DHT22;32569;51.762;8.564;2023-05-18T10:03:34;12.00;91.00
15231;DHT22;32569;51.762;8.564;2023-05-18T10:06:03;12.10;91.20
15231;DHT22;32569;51.762;8.564;2023-05-18T10:08:31;12.20;91.10
15231;DHT22;32569;51.762;8.564;2023-05-18T10:10:57;12.40;90.80
15231;DHT22;32569;51.762;8.564;2023-05-18T10:13:25;12.70;90.80
15231;DHT22;32569;51.762;8.564;2023-05-18T10:15:54;12.90;90.30
15231;DHT22;32569;51.762;8.564;2023-05-18T10:18:23;12.90;89.70
15231;DHT22;32569;51.762;8.564;2023-05-18T10:20:52;13.00;90.20
15231;DHT22;32569;51.762;8.564;2023-05-18T10:23:19;13.10;90.90
15231;DHT22;32569;51.762;8.564;2023-05-18T10:25:48;13.40;89.20
15231;DHT22;32569;51.762;8.564;2023-05-18T10:28:18;13.50;89.00
15231;DHT22;32569;51.762;8.564;2023-05-18T10:30:50;13.50;89.10
15231;DHT22;32569;51.762;8.564;2023-05-18T10:33:17;13.60;88.00
15231;DHT22;32569;51.762;8.564;2023-05-18T10:35:46;13.50;88.10
15231;DHT22;32569;51.762;8.564;2023-05-18T10:38:17;13.50;89.00
15231;DHT22;32569;51.762;8.564;2023-05-18T10:40:47;13.30;90.00
15231;DHT22;32569;51.762;8.564;2023-05-18T10:43:18;13.40;90.50
15231;DHT22;32569;51.762;8.564;2023-05-18T10:45:46;13.30;89.40
15231;DHT22;32569;51.762;8.564;2023-05-18T10:48:14;13.30;90.00
15231;DHT22;32569;51.762;8.564;2023-05-18T10:50:42;13.30;89.00
15231;DHT22;32569;51.762;8.564;2023-05-18T10:53:12;13.30;89.30
15231;DHT22;32569;51.762;8.564;2023-05-18T10:55:39;13.50;88.80
15231;DHT22;32569;51.762;8.564;2023-05-18T10:58:11;13.70;89.40
15231;DHT22;32569;51.762;8.564;2023-05-18T11:00:40;13.80;87.40
15231;DHT22;32569;51.762;8.564;2023-05-18T11:03:09;13.90;89.00
15231;DHT22;32569;51.762;8.564;2023-05-18T11:05:38;13.80;87.70
15231;DHT22;32569;51.762;8.564;2023-05-18T11:08:05;13.90;86.80
15231;DHT22;32569;51.762;8.564;2023-05-18T11:10:38;13.80;87.50
15231;DHT22;32569;51.762;8.564;2023-05-18T11:13:05;14.00;86.20
15231;DHT22;32569;51.762;8.564;2023-05-18T11:16:00;14.00;85.90
15231;DHT22;32569;51.762;8.564;2023-05-18T11:18:34;14.20;88.10
15231;DHT22;32569;51.762;8.564;2023-05-18T11:21:01;14.20;86.60
15231;DHT22;32569;51.762;8.564;2023-05-18T11:23:30;14.20;87.70
15231;DHT22;32569;51.762;8.564;2023-05-18T11:26:00;14.10;88.50
15231;DHT22;32569;51.762;8.564;2023-05-18T11:28:29;14.00;87.80
15231;DHT22;32569;51.762;8.564;2023-05-18T11:30:56;14.00;89.20
15231;DHT22;32569;51.762;8.564;2023-05-18T11:33:25;14.10;87.90
15231;DHT22;32569;51.762;8.564;2023-05-18T11:36:02;14.00;87.10
15231;DHT22;32569;51.762;8.564;2023-05-18T11:38:46;14.00;88.50
15231;DHT22;32569;51.762;8.564;2023-05-18T11:41:28;13.90;88.90
15231;DHT22;32569;51.762;8.564;2023-05-18T11:44:22;13.90;88.00
15231;DHT22;32569;51.762;8.564;2023-05-18T11:46:54;13.90;88.30
15231;DHT22;32569;51.762;8.564;2023-05-18T11:49:23;14.00;88.70
15231;DHT22;32569;51.762;8.564;2023-05-18T11:52:07;14.10;88.30
15231;DHT22;32569;51.762;8.564;2023-05-18T11:54:38;14.10;88.30
15231;DHT22;32569;51.762;8.564;2023-05-18T11:57:07;14.10;88.00
15231;DHT22;32569;51.762;8.564;2023-05-18T11:59:37;14.10;88.40
15231;DHT22;32569;51.762;8.564;2023-05-18T12:02:05;14.10;88.00
15231;DHT22;32569;51.762;8.564;2023-05-18T12:04:43;14.30;87.50
15231;DHT22;32569;51.762;8.564;2023-05-18T12:07:11;14.40;87.20
15231;DHT22;32569;51.762;8.564;2023-05-18T12:09:42;14.30;86.20
15231;DHT22;32569;51.762;8.564;2023-05-18T12:12:12;14.20;86.70
15231;DHT22;32569;51.762;8.564;2023-05-18T12:14:42;14.40;87.50
15231;DHT22;32569;51.762;8.564;2023-05-18T12:17:09;14.50;86.50
15231;DHT22;32569;51.762;8.564;2023-05-18T12:19:43;14.60;86.40
15231;DHT22;32569;51.762;8.564;2023-05-18T12:22:10;14.50;87.10
15231;DHT22;32569;51.762;8.564;2023-05-18T12:24:37;14.50;87.40
15231;DHT22;32569;51.762;8.564;2023-05-18T12:27:13;14.40;86.70
15231;DHT22;32569;51.762;8.564;2023-05-18T12:29:41;14.30;86.50
15231;DHT22;32569;51.762;8.564;2023-05-18T12:32:09;14.20;88.10
15231;DHT22;32569;51.762;8.564;2023-05-18T12:34:37;14.30;86.40
15231;DHT22;32569;51.762;8.564;2023-05-18T12:37:05;14.40;86.00
15231;DHT22;32569;51.762;8.564;2023-05-18T12:39:32;14.40;87.10
15231;DHT22;32569;51.762;8.564;2023-05-18T12:42:14;14.60;88.80
15231;DHT22;32569;51.762;8.564;2023-05-18T12:44:41;14.90;86.50
15231;DHT22;32569;51.762;8.564;2023-05-18T12:47:09;15.00;84.70
15231;DHT22;32569;51.762;8.564;2023-05-18T12:49:37;15.20;84.80
15231;DHT22;32569;51.762;8.564;2023-05-18T12:52:11;15.30;85.00
15231;DHT22;32569;51.762;8.564;2023-05-18T12:54:51;15.30;83.30
15231;DHT22;32569;51.762;8.564;2023-05-18T12:57:26;15.10;83.20
15231;DHT22;32569;51.762;8.564;2023-05-18T12:59:56;15.00;85.10
15231;DHT22;32569;51.762;8.564;2023-05-18T13:02:31;15.10;84.10
15231;DHT22;32569;51.762;8.564;2023-05-18T13:05:02;15.10;84.20
15231;DHT22;32569;51.762;8.564;2023-05-18T13:07:29;15.00;82.60
15231;DHT22;32569;51.762;8.564;2023-05-18T13:10:00;14.80;84.00
15231;DHT22;32569;51.762;8.564;2023-05-18T13:12:41;14.90;84.30
15231;DHT22;32569;51.762;8.564;2023-05-18T13:15:09;15.00;84.70
15231;DHT22;32569;51.762;8.564;2023-05-18T13:17:36;15.10;84.30
15231;DHT22;32569;51.762;8.564;2023-05-18T13:20:11;15.20;85.20
15231;DHT22;32569;51.762;8.564;2023-05-18T13:22:38;15.20;84.60
15231;DHT22;32569;51.762;8.564;2023-05-18T13:25:06;15.20;84.80
15231;DHT22;32569;51.762;8.564;2023-05-18T13:27:34;15.40;83.50
15231;DHT22;32569;51.762;8.564;2023-05-18T13:30:03;15.40;82.20
15231;DHT22;32569;51.762;8.564;2023-05-18T13:32:30;15.10;82.40
15231;DHT22;32569;51.762;8.564;2023-05-18T13:34:56;15.00;83.50
15231;DHT22;32569;51.762;8.564;2023-05-18T13:37:23;14.90;83.30
15231;DHT22;32569;51.762;8.564;2023-05-18T13:39:50;14.90;84.40
15231;DHT22;32569;51.762;8.564;2023-05-18T13:42:22;15.00;84.30
15231;DHT22;32569;51.762;8.564;2023-05-18T13:44:49;15.10;84.40
15231;DHT22;32569;51.762;8.564;2023-05-18T13:47:17;15.20;83.60
15231;DHT22;32569;51.762;8.564;2023-05-18T13:49:44;15.30;83.80
15231;DHT22;32569;51.762;8.564;2023-05-18T13:52:11;15.30;82.60
15231;DHT22;32569;51.762;8.564;2023-05-18T13:54:37;15.40;84.60
15231;DHT22;32569;51.762;8.564;2023-05-18T13:57:04;15.50;82.00
15231;DHT22;32569;51.762;8.564;2023-05-18T13:59:32;15.40;82.00
15231;DHT22;32569;51.762;8.564;2023-05-18T14:01:59;15.40;82.80
15231;DHT22;32569;51.762;8.564;2023-05-18T14:04:26;15.40;82.10
15231;DHT22;32569;51.762;8.564;2023-05-18T14:06:53;15.40;83.00
15231;DHT22;32569;51.762;8.564;2023-05-18T14:09:20;15.50;84.00
15231;DHT22;32569;51.762;8.564;2023-05-18T14:11:47;15.60;83.50
15231;DHT22;32569;51.762;8.564;2023-05-18T14:14:13;15.60;83.70
15231;DHT22;32569;51.762;8.564;2023-05-18T14:16:40;15.50;83.40
15231;DHT22;32569;51.762;8.564;2023-05-18T14:19:07;15.50;83.20
15231;DHT22;32569;51.762;8.564;2023-05-18T14:21:35;15.50;83.50
15231;DHT22;32569;51.762;8.564;2023-05-18T14:24:03;15.70;83.90
15231;DHT22;32569;51.762;8.564;2023-05-18T14:26:31;15.80;82.30
15231;DHT22;32569;51.762;8.564;2023-05-18T14:28:58;15.70;83.10
15231;DHT22;32569;51.762;8.564;2023-05-18T14:31:28;15.60;82.60
15231;DHT22;32569;51.762;8.564;2023-05-18T14:33:54;15.60;83.00
15231;DHT22;32569;51.762;8.564;2023-05-18T14:36:21;15.70;83.10
15231;DHT22;32569;51.762;8.564;2023-05-18T14:38:49;15.70;82.20
15231;DHT22;32569;51.762;8.564;2023-05-18T14:41:15;15.70;82.00
15231;DHT22;32569;51.762;8.564;2023-05-18T14:43:42;15.70;83.00
15231;DHT22;32569;51.762;8.564;2023-05-18T14:46:10;15.80;83.60
15231;DHT22;32569;51.762;8.564;2023-05-18T14:48:36;15.80;84.00
15231;DHT22;32569;51.762;8.564;2023-05-18T14:51:06;15.80;84.30
15231;DHT22;32569;51.762;8.564;2023-05-18T14:53:35;15.80;82.70
15231;DHT22;32569;51.762;8.564;2023-05-18T14:56:04;15.80;81.90
15231;DHT22;32569;51.762;8.564;2023-05-18T14:58:33;15.80;81.50
15231;DHT22;32569;51.762;8.564;2023-05-18T15:01:00;15.70;82.90
15231;DHT22;32569;51.762;8.564;2023-05-18T15:03:26;15.70;83.00
15231;DHT22;32569;51.762;8.564;2023-05-18T15:05:53;15.80;83.00
15231;DHT22;32569;51.762;8.564;2023-05-18T15:08:20;15.80;82.70
15231;DHT22;32569;51.762;8.564;2023-05-18T15:10:46;15.80;83.50
15231;DHT22;32569;51.762;8.564;2023-05-18T15:13:15;15.90;83.20
15231;DHT22;32569;51.762;8.564;2023-05-18T15:15:42;16.00;83.90
15231;DHT22;32569;51.762;8.564;2023-05-18T15:18:12;16.10;83.40
15231;DHT22;32569;51.762;8.564;2023-05-18T15:20:38;16.20;83.30
15231;DHT22;32569;51.762;8.564;2023-05-18T15:23:08;16.10;83.90
15231;DHT22;32569;51.762;8.564;2023-05-18T15:25:35;16.00;82.30
15231;DHT22;32569;51.762;8.564;2023-05-18T15:28:01;16.00;83.50
15231;DHT22;32569;51.762;8.564;2023-05-18T15:30:29;16.00;81.60
15231;DHT22;32569;51.762;8.564;2023-05-18T15:32:58;15.90;82.00
15231;DHT22;32569;51.762;8.564;2023-05-18T15:35:26;15.90;82.50
15231;DHT22;32569;51.762;8.564;2023-05-18T15:37:53;15.80;82.10
15231;DHT22;32569;51.762;8.564;2023-05-18T15:40:20;15.90;82.30
15231;DHT22;32569;51.762;8.564;2023-05-18T15:42:46;16.00;82.60
15231;DHT22;32569;51.762;8.564;2023-05-18T15:45:13;16.00;82.10